Station: Mount Lofty

  Atmospheric Gas Attenuation - ITU Rec 676-11   --------------- db/100km ---------------
Date Time Temp RH % AH g/m3 Dew Point Wind Direction Speed kph Gust kph Barometer mB Rainfall Since 9am 24GHz 47GHz 76GHz 122GHz 134GHz 241GHz
15 01:50 6.9 99 7.63 6.7 9 15 1013.1 13.6 17.8 26.3 39.2 102.9 93.8 321.5
15 01:40 7.2 99 7.78 7 6 9 1013.1 13.6 18.1 26.5 39.7 104.2 95.5 327.6
15 01:30 7.3 99 7.83 7.1 7 9 1013.1 13.6 18.2 26.5 39.9 104.6 96.1 329.6
15 01:20 7.4 99 7.88 7.2 6 9 1013.1 13.6 18.3 26.6 40.0 105.1 96.7 331.6
15 01:10 7.5 99 7.93 7.3 7 11 1013.1 13.6 18.4 26.6 40.2 105.5 97.3 333.7
15 01:00 7.7 99 8.03 7.5 6 7 1013.1 13.6 18.7 26.8 40.5 106.4 98.4 337.7
15 00:50 7.7 99 8.03 7.5 9 13 1013.1 13.6 18.7 26.8 40.5 106.4 98.4 337.7
15 00:40 7.8 99 8.08 7.6 7 9 1013.1 13.6 18.8 26.8 40.7 106.8 99.0 339.7
15 00:30 7.8 99 8.08 7.6 9 11 1013.1 13.6 18.8 26.8 40.7 106.8 99.0 339.7
15 00:20 7.9 99 8.14 7.7 7 9 1013.1 13.6 18.9 26.9 40.9 107.3 99.7 342.3
15 00:10 7.9 99 8.14 7.7 7 9 1013.1 13.6 18.9 26.9 40.9 107.3 99.7 342.3
15 00:00 8 99 8.19 7.8 6 7 1013.1 13.6 19.0 26.9 41.1 107.8 100.3 344.3
14 23:50 8 99 8.19 7.8 7 11 1013.1 13.6 19.0 26.9 41.1 107.8 100.3 344.3
14 23:40 8 99 8.19 7.8 7 7 1013.1 13.6 19.0 26.9 41.1 107.8 100.3 344.3
14 23:30 8 99 8.19 7.8 7 11 1013.1 13.6 19.0 26.9 41.1 107.8 100.3 344.3
14 23:20 8 99 8.19 7.8 7 11 1013.1 13.6 19.0 26.9 41.1 107.8 100.3 344.3
14 23:10 8 99 8.19 7.8 6 9 1013.1 13.6 19.0 26.9 41.1 107.8 100.3 344.3
14 23:00 8 99 8.19 7.8 9 11 1013.1 13.6 19.0 26.9 41.1 107.8 100.3 344.3
14 22:50 8.1 99 8.24 7.9 7 9 1013.1 13.6 19.1 27.0 41.2 108.2 100.9 346.3
14 22:40 8.1 99 8.24 7.9 9 11 1013.1 13.6 19.1 27.0 41.2 108.2 100.9 346.3
14 22:30 8.1 99 8.24 7.9 9 11 1013.1 13.6 19.1 27.0 41.2 108.2 100.9 346.3
14 22:20 8.1 99 8.24 7.9 6 7 1013.1 13.6 19.1 27.0 41.2 108.2 100.9 346.3
14 22:10 8.2 99 8.29 8 9 11 1013.1 13.6 19.2 27.0 41.4 108.6 101.4 348.3
14 22:00 8.4 99 8.4 8.3 6 11 1013.1 13.4 19.4 27.2 41.8 109.6 102.7 352.8
14 21:50 8.6 99 8.51 8.4 9 13 1013.1 13.4 19.7 27.3 42.1 110.6 104.0 357.4
14 21:40 8.8 99 8.62 8.6 6 9 1013.1 13.4 19.9 27.4 42.5 111.6 105.3 361.9
14 21:30 9 99 8.73 8.8 6 7 1013.1 13.4 20.1 27.6 42.9 112.6 106.6 366.4
14 21:20 9.2 99 8.84 9 6 9 1013.1 13.4 20.3 27.7 43.2 113.5 107.8 370.9
14 21:10 9.4 99 8.96 9.2 6 7 1013.1 13.2 20.6 27.8 43.6 114.6 109.3 375.9
14 21:00 9.6 99 9.07 9.4 4 4 1013.1 13.2 20.8 28.0 44.0 115.6 110.5 380.4
14 20:50 9.7 99 9.13 9.5 2 4 1013.1 13.2 20.9 28.0 44.2 116.1 111.3 382.9
14 20:40 9.8 99 9.19 9.6 0 0 1013.1 13.2 21.1 28.1 44.4 116.7 112.0 385.4
14 20:30 9.9 99 9.25 9.7 0 2 1013.1 13.2 21.2 28.2 44.6 117.2 112.7 387.9
14 20:20 10 99 9.3 9.8 2 2 1013.1 13.2 21.3 28.2 44.8 117.6 113.2 389.9
14 20:10 10.1 99 9.36 9.9 2 2 1013.1 13.2 21.4 28.3 45.0 118.2 113.9 392.4
14 20:00 10.2 99 9.42 10 2 2 1013.1 13.2 21.5 28.4 45.2 118.7 114.7 394.8
14 19:50 10.3 99 9.48 10.1 6 6 1013.1 13.2 21.7 28.4 45.4 119.3 115.4 397.3
14 19:40 10.4 99 9.54 10.2 4 4 1013.1 13.2 21.8 28.5 45.6 119.8 116.1 399.8
14 19:30 10.4 99 9.54 10.2 2 6 1013.1 13.2 21.8 28.5 45.6 119.8 116.1 399.8
14 19:20 10.4 99 9.54 10.2 4 4 1013.1 13.2 21.8 28.5 45.6 119.8 116.1 399.8
14 19:10 10.5 99 9.6 10.3 2 4 1013.1 13.2 21.9 28.6 45.8 120.4 116.8 402.3
14 19:00 10.5 99 9.6 10.3 4 6 1013.1 13.2 21.9 28.6 45.8 120.4 116.8 402.3
14 18:50 10.4 99 9.54 10.2 4 6 1013.1 13.2 21.8 28.5 45.6 119.8 116.1 399.8
14 18:40 10.4 99 9.54 10.2 4 6 1013.1 13.2 21.8 28.5 45.6 119.8 116.1 399.8
14 18:30 10.4 99 9.54 10.2 4 4 1013.1 13.2 21.8 28.5 45.6 119.8 116.1 399.8
14 18:20 10.4 99 9.54 10.2 6 7 1013.1 13.2 21.8 28.5 45.6 119.8 116.1 399.8
14 18:10 10.5 99 9.6 10.3 6 6 1013.1 13.2 21.9 28.6 45.8 120.4 116.8 402.3
14 18:00 10.4 99 9.54 10.2 4 6 1013.1 13 21.8 28.5 45.6 119.8 116.1 399.8
14 17:50 10.5 99 9.6 10.3 4 4 1013.1 13 21.9 28.6 45.8 120.4 116.8 402.3
14 17:40 10.5 99 9.6 10.3 6 11 1013.1 12.8 21.9 28.6 45.8 120.4 116.8 402.3
14 17:30 10.4 99 9.54 10.2 6 7 1013.1 12.8 21.8 28.5 45.6 119.8 116.1 399.8
14 17:20 10.4 99 9.54 10.2 9 11 1013.1 12.8 21.8 28.5 45.6 119.8 116.1 399.8
14 17:10 10.4 99 9.54 10.2 9 15 1013.1 12.8 21.8 28.5 45.6 119.8 116.1 399.8
14 17:00 10.5 99 9.6 10.3 11 17 1013.1 12.8 21.9 28.6 45.8 120.4 116.8 402.3
14 16:50 10.4 99 9.54 10.2 13 17 1013.1 12.8 21.8 28.5 45.6 119.8 116.1 399.8
14 16:40 10.4 99 9.54 10.2 13 19 1013.1 12.8 21.8 28.5 45.6 119.8 116.1 399.8
14 16:30 10.5 99 9.6 10.3 13 19 1013.1 12.8 21.9 28.6 45.8 120.4 116.8 402.3
14 16:20 10.7 99 9.73 10.5 7 13 1013.1 12.8 22.2 28.8 46.2 121.6 118.3 407.8
14 16:10 11.1 99 9.97 10.9 7 9 1013.1 12.8 22.7 29.0 47.0 123.7 121.2 417.7
14 16:00 11.3 99 10.1 11.1 9 17 1013.1 12.8 22.9 29.2 47.5 124.9 122.7 423.2
14 15:50 11.1 99 9.97 10.9 7 11 1013.1 12.8 22.7 29.0 47.0 123.7 121.2 417.7
14 15:40 10.9 99 9.85 10.7 17 26 1013.1 12.4 22.4 28.9 46.6 122.6 119.7 412.7
14 15:30 11 99 9.91 10.8 19 26 1013.1 11.6 22.6 29.0 46.8 123.2 120.4 415.2
14 15:20 11 99 9.91 10.8 11 17 1013.1 11.6 22.6 29.0 46.8 123.2 120.4 415.2
14 15:10 10.9 99 9.85 10.7 15 22 1013.1 11.6 22.4 28.9 46.6 122.6 119.7 412.7
14 15:00 11.1 99 9.97 10.9 13 32 1013.1 11.6 22.7 29.0 47.0 123.7 121.2 417.7
14 14:50 11.3 99 10.1 11.1 9 13 1013.1 11.6 22.9 29.2 47.5 124.9 122.7 423.2
14 14:40 11.1 99 9.97 10.9 11 20 1013.1 11.4 22.7 29.0 47.0 123.7 121.2 417.7
14 14:30 11 99 9.91 10.8 9 17 1013.1 11.4 22.6 29.0 46.8 123.2 120.4 415.2
14 14:20 10.9 99 9.85 10.7 13 20 1013.1 11.4 22.4 28.9 46.6 122.6 119.7 412.7
14 14:10 11.1 99 9.97 10.9 7 11 1013.1 11.4 22.7 29.0 47.0 123.7 121.2 417.7
14 14:00 11.1 99 9.97 10.9 7 7 1013.1 10.8 22.7 29.0 47.0 123.7 121.2 417.7
14 13:50 11.1 99 9.97 10.9 9 15 1013.1 9.8 22.7 29.0 47.0 123.7 121.2 417.7
14 13:40 10.9 99 9.85 10.7 9 20 1013.1 9.8 22.4 28.9 46.6 122.6 119.7 412.7
14 13:30 10.9 99 9.85 10.7 9 19 1013.1 9 22.4 28.9 46.6 122.6 119.7 412.7
14 13:20 10.8 99 9.79 10.6 13 19 1013.1 7.6 22.3 28.8 46.4 122.1 119.0 410.3
14 13:10 10.8 99 9.79 10.6 15 20 1013.1 7.6 22.3 28.8 46.4 122.1 119.0 410.3
14 13:00 10.8 99 9.79 10.6 11 20 1013.1 7.4 22.3 28.8 46.4 122.1 119.0 410.3
14 12:50 10.7 99 9.73 10.5 11 15 1013.1 6.4 22.2 28.8 46.2 121.6 118.3 407.8
14 12:40 10.7 99 9.73 10.5 13 26 1013.1 5.6 22.2 28.8 46.2 121.6 118.3 407.8
14 12:30 10.7 99 9.73 10.5 11 13 1013.1 5.4 22.2 28.8 46.2 121.6 118.3 407.8
14 12:20 10.7 99 9.73 10.5 7 11 1013.1 5.2 22.2 28.8 46.2 121.6 118.3 407.8
14 12:10 10.6 99 9.66 10.4 19 26 1013.1 4.6 22.0 28.7 46.0 120.9 117.5 404.8
14 12:00 10.4 99 9.54 10.2 11 15 1013.1 4 21.8 28.5 45.6 119.8 116.1 399.8
14 11:50 10.1 99 9.36 9.9 13 17 1013.1 3.8 21.4 28.3 45.0 118.2 113.9 392.4
14 11:40 10.1 99 9.36 9.9 13 17 1013.1 2.6 21.4 28.3 45.0 118.2 113.9 392.4
14 11:30 10 99 9.3 9.8 15 22 1013.1 1.8 21.3 28.2 44.8 117.6 113.2 389.9
14 11:20 10 99 9.3 9.8 15 24 1013.1 1.6 21.3 28.2 44.8 117.6 113.2 389.9
14 11:10 9.8 99 9.19 9.6 9 15 1013.1 1.4 21.1 28.1 44.4 116.7 112.0 385.4
14 11:00 9.9 99 9.25 9.7 17 22 1013.1 1 21.2 28.2 44.6 117.2 112.7 387.9
14 10:50 9.9 99 9.25 9.7 9 13 1013.1 0.8 21.2 28.2 44.6 117.2 112.7 387.9
14 10:40 9.8 99 9.19 9.6 15 19 1013.1 0.8 21.1 28.1 44.4 116.7 112.0 385.4
14 10:30 9.8 99 9.19 9.6 17 20 1013.1 0.4 21.1 28.1 44.4 116.7 112.0 385.4
14 10:20 9.8 99 9.19 9.6 11 15 1013.1 0.2 21.1 28.1 44.4 116.7 112.0 385.4
14 10:10 9.6 99 9.07 9.4 15 20 1013.1 0.2 20.8 28.0 44.0 115.6 110.5 380.4
14 10:00 9.5 99 9.01 9.4 13 26 1013.1 0.2 20.7 27.9 43.8 115.0 109.8 377.9
14 09:50 9.4 99 8.96 9.2 19 28 1013.1 0 20.6 27.8 43.6 114.6 109.3 375.9
14 09:40 9.3 99 8.9 9.1 17 22 1013.1 0 20.5 27.8 43.4 114.1 108.6 373.4
14 09:30 9.3 99 8.9 9.1 15 19 1013.1 0 20.5 27.8 43.4 114.1 108.6 373.4
14 09:20 9.2 99 8.84 9 13 17 1013.1 0 20.3 27.7 43.2 113.5 107.8 370.9

Last Refresh: 15-Jun-2024 01:54:36

Bureau of Meteorology